createdAt,value
2023-03-28T00:00:57.122Z,100675.78
2023-03-28T00:03:23.867Z,100680.72
2023-03-28T00:05:51.147Z,100679.16
2023-03-28T00:08:18.902Z,100676.22
2023-03-28T00:10:46.398Z,100677.78
2023-03-28T00:13:13.756Z,100690.41
2023-03-28T00:15:42.834Z,100700.41
2023-03-28T00:18:10.390Z,100692.53
2023-03-28T00:20:39.259Z,100697.44
2023-03-28T00:23:06.298Z,100698.72
2023-03-28T00:25:34.508Z,100707.59
2023-03-28T00:28:02.005Z,100704.78
2023-03-28T00:30:29.308Z,100707.44
2023-03-28T00:32:58.637Z,100716.28
2023-03-28T00:35:25.768Z,100711.94
2023-03-28T00:37:53.545Z,100712.22
2023-03-28T00:40:20.458Z,100720.38
2023-03-28T00:42:47.218Z,100723.03
2023-03-28T00:45:14.006Z,100721.50
2023-03-28T00:47:45.900Z,100730.34
2023-03-28T00:50:22.279Z,100721.09
2023-03-28T00:52:58.462Z,100729.25
2023-03-28T00:55:31.565Z,100726.56
2023-03-28T00:57:59.269Z,100727.38
2023-03-28T01:00:28.457Z,100726.41
2023-03-28T01:02:59.531Z,100723.75
2023-03-28T01:05:32.456Z,100721.50
2023-03-28T01:08:07.991Z,100723.19
2023-03-28T01:10:35.953Z,100731.06
2023-03-28T01:13:06.622Z,100725.59
2023-03-28T01:15:33.934Z,100728.53
2023-03-28T01:18:03.822Z,100727.88
2023-03-28T01:21:11.391Z,100728.41
2023-03-28T01:24:21.530Z,100730.94
2023-03-28T01:26:56.030Z,100736.97
2023-03-28T01:30:03.411Z,100728.84
2023-03-28T01:33:41.949Z,100737.56
2023-03-28T01:36:56.955Z,100742.03
2023-03-28T01:39:45.247Z,100746.00
2023-03-28T01:42:24.626Z,100738.94
2023-03-28T01:45:09.947Z,100736.56
2023-03-28T01:47:42.102Z,100745.84
2023-03-28T01:50:19.990Z,100747.66
2023-03-28T01:53:02.953Z,100749.34
2023-03-28T01:55:41.710Z,100749.91
2023-03-28T01:58:22.048Z,100754.97
2023-03-28T02:01:01.562Z,100750.19
2023-03-28T02:03:34.729Z,100755.53
2023-03-28T02:06:11.878Z,100753.69
2023-03-28T02:08:46.694Z,100760.00
2023-03-28T02:11:27.232Z,100756.63
2023-03-28T02:14:18.804Z,100748.22
2023-03-28T02:17:03.514Z,100750.44
2023-03-28T02:19:57.060Z,100752.13
2023-03-28T02:22:53.161Z,100754.78
2023-03-28T02:25:34.443Z,100751.44
2023-03-28T02:28:23.460Z,100745.53
2023-03-28T02:31:07.447Z,100747.06
2023-03-28T02:33:39.099Z,100740.34
2023-03-28T02:36:34.661Z,100747.34
2023-03-28T02:39:42.314Z,100741.75
2023-03-28T02:42:38.090Z,100757.16
2023-03-28T02:45:49.409Z,100742.44
2023-03-28T02:48:37.349Z,100742.72
2023-03-28T02:51:22.460Z,100749.16
2023-03-28T02:54:03.621Z,100750.28
2023-03-28T02:56:45.652Z,100750.44
2023-03-28T02:59:37.679Z,100748.03
2023-03-28T03:02:05.279Z,100748.19
2023-03-28T03:04:32.294Z,100746.09
2023-03-28T03:06:59.722Z,100747.91
2023-03-28T03:09:29.522Z,100754.22
2023-03-28T03:11:56.346Z,100749.72
2023-03-28T03:14:23.231Z,100748.44
2023-03-28T03:16:56.520Z,100746.50
2023-03-28T03:19:23.305Z,100745.66
2023-03-28T03:21:50.209Z,100752.94
2023-03-28T03:24:17.057Z,100749.31
2023-03-28T03:26:45.006Z,100750.72
2023-03-28T03:29:16.176Z,100759.41
2023-03-28T03:31:44.312Z,100760.78
2023-03-28T03:34:51.234Z,100762.84
2023-03-28T03:37:18.734Z,100763.50
2023-03-28T03:39:46.529Z,100758.69
2023-03-28T03:42:16.501Z,100755.16
2023-03-28T03:44:45.208Z,100750.97
2023-03-28T03:47:13.509Z,100760.25
2023-03-28T03:49:40.438Z,100763.41
2023-03-28T03:52:08.626Z,100769.03
2023-03-28T03:54:37.922Z,100760.50
2023-03-28T03:57:05.323Z,100758.91
2023-03-28T03:59:32.941Z,100758.53
2023-03-28T04:02:00.781Z,100755.69
2023-03-28T04:04:39.175Z,100756.38
2023-03-28T04:07:15.468Z,100758.16
2023-03-28T04:09:42.890Z,100758.91
2023-03-28T04:12:11.739Z,100763.94
2023-03-28T04:14:45.882Z,100770.03
2023-03-28T04:17:33.756Z,100766.06
2023-03-28T04:20:05.659Z,100765.81
2023-03-28T04:22:35.402Z,100768.72
2023-03-28T04:25:13.228Z,100758.41
2023-03-28T04:27:40.178Z,100768.41
2023-03-28T04:30:08.827Z,100765.03
2023-03-28T04:32:54.154Z,100773.28
2023-03-28T04:35:26.702Z,100781.91
2023-03-28T04:37:55.552Z,100784.84
2023-03-28T04:40:22.985Z,100786.50
2023-03-28T04:42:58.289Z,100789.06
2023-03-28T04:45:38.235Z,100797.28
2023-03-28T04:48:13.100Z,100799.72
2023-03-28T04:50:40.200Z,100802.78
2023-03-28T04:53:08.331Z,100799.84
2023-03-28T04:55:38.059Z,100802.47
2023-03-28T04:58:19.167Z,100800.25
2023-03-28T05:00:46.291Z,100812.78
2023-03-28T05:03:31.650Z,100810.34
2023-03-28T05:06:04.684Z,100809.34
2023-03-28T05:08:33.496Z,100821.03
2023-03-28T05:11:01.357Z,100821.25
2023-03-28T05:13:28.465Z,100824.41
2023-03-28T05:16:07.744Z,100828.19
2023-03-28T05:18:49.681Z,100826.38
2023-03-28T05:21:20.668Z,100826.81
2023-03-28T05:23:52.677Z,100827.69
2023-03-28T05:26:22.432Z,100833.47
2023-03-28T05:28:50.599Z,100835.81
2023-03-28T05:31:17.728Z,100835.53
2023-03-28T05:33:49.353Z,100841.31
2023-03-28T05:36:25.709Z,100840.38
2023-03-28T05:38:53.837Z,100854.88
2023-03-28T05:41:21.134Z,100854.06
2023-03-28T05:43:48.512Z,100852.16
2023-03-28T05:46:26.478Z,100854.25
2023-03-28T05:48:54.165Z,100853.03
2023-03-28T05:51:21.276Z,100854.78
2023-03-28T05:53:48.545Z,100854.31
2023-03-28T05:56:16.654Z,100854.09
2023-03-28T05:58:43.515Z,100859.25
2023-03-28T06:01:10.664Z,100855.44
2023-03-28T06:03:38.488Z,100859.97
2023-03-28T06:06:07.796Z,100859.81
2023-03-28T06:08:35.762Z,100862.09
2023-03-28T06:11:03.880Z,100865.19
2023-03-28T06:13:46.804Z,100856.16
2023-03-28T06:16:14.860Z,100862.25
2023-03-28T06:18:41.819Z,100863.09
2023-03-28T06:21:08.892Z,100864.22
2023-03-28T06:23:35.880Z,100869.13
2023-03-28T06:26:03.514Z,100868.66
2023-03-28T06:28:37.952Z,100865.28
2023-03-28T06:31:17.655Z,100870.97
2023-03-28T06:33:44.858Z,100878.50
2023-03-28T06:36:12.293Z,100871.63
2023-03-28T06:38:39.939Z,100871.56
2023-03-28T06:41:07.716Z,100862.72
2023-03-28T06:43:36.273Z,100874.31
2023-03-28T06:46:30.302Z,100868.78
2023-03-28T06:48:57.201Z,100860.88
2023-03-28T06:51:24.204Z,100876.72
2023-03-28T06:53:51.124Z,100870.41
2023-03-28T06:56:23.705Z,100878.50
2023-03-28T06:58:50.532Z,100882.88
2023-03-28T07:01:22.459Z,100889.63
2023-03-28T07:03:56.739Z,100885.06
2023-03-28T07:06:26.609Z,100893.00
2023-03-28T07:08:57.946Z,100892.91
2023-03-28T07:11:34.010Z,100891.03
2023-03-28T07:14:00.843Z,100900.69
2023-03-28T07:16:27.800Z,100897.09
2023-03-28T07:18:56.416Z,100895.34
2023-03-28T07:21:31.397Z,100891.38
2023-03-28T07:24:01.016Z,100896.16
2023-03-28T07:26:35.630Z,100895.19
2023-03-28T07:29:02.775Z,100898.56
2023-03-28T07:31:29.656Z,100902.13
2023-03-28T07:34:00.197Z,100892.75
2023-03-28T07:36:29.050Z,100891.06
2023-03-28T07:39:02.989Z,100891.38
2023-03-28T07:41:30.678Z,100888.50
2023-03-28T07:43:57.687Z,100889.56
2023-03-28T07:46:25.403Z,100894.34
2023-03-28T07:48:52.435Z,100890.59
2023-03-28T07:51:21.519Z,100898.22
2023-03-28T07:53:48.717Z,100895.16
2023-03-28T07:56:16.054Z,100898.66
2023-03-28T07:58:59.445Z,100896.81
2023-03-28T08:01:26.308Z,100898.63
2023-03-28T08:03:58.202Z,100905.13
2023-03-28T08:06:35.470Z,100907.38
2023-03-28T08:09:02.877Z,100914.63
2023-03-28T08:11:43.681Z,100909.94
2023-03-28T08:14:14.013Z,100914.00
2023-03-28T08:16:42.941Z,100914.09
2023-03-28T08:19:11.776Z,100914.56
2023-03-28T08:22:07.086Z,100919.34
2023-03-28T08:24:41.947Z,100923.59
2023-03-28T08:27:12.425Z,100926.00
2023-03-28T08:29:41.669Z,100928.28
2023-03-28T08:32:09.364Z,100931.47
2023-03-28T08:34:36.565Z,100927.50
2023-03-28T08:37:11.122Z,100921.28
2023-03-28T08:39:37.977Z,100921.34
2023-03-28T08:42:38.785Z,100920.44
2023-03-28T08:45:30.575Z,100927.47
2023-03-28T08:48:17.487Z,100923.47
2023-03-28T08:50:49.099Z,100926.94
2023-03-28T08:53:26.831Z,100934.78
2023-03-28T08:55:57.630Z,100915.41
2023-03-28T08:58:34.094Z,100921.19
2023-03-28T09:01:03.068Z,100919.38
2023-03-28T09:03:34.628Z,100925.16
2023-03-28T09:06:23.733Z,100929.09
2023-03-28T09:09:14.718Z,100928.22
2023-03-28T09:11:59.064Z,100923.75
2023-03-28T09:14:55.321Z,100931.03
2023-03-28T09:17:41.057Z,100920.00
2023-03-28T09:20:18.731Z,100927.81
2023-03-28T09:23:18.208Z,100916.03
2023-03-28T09:26:29.617Z,100922.94
2023-03-28T09:29:09.234Z,100922.97
2023-03-28T09:31:45.690Z,100927.41
2023-03-28T09:34:22.902Z,100924.56
2023-03-28T09:36:57.660Z,100923.34
2023-03-28T09:39:35.671Z,100919.56
2023-03-28T09:42:16.169Z,100918.63
2023-03-28T09:45:02.739Z,100911.56
2023-03-28T09:47:50.287Z,100914.06
2023-03-28T09:50:20.876Z,100917.63
2023-03-28T09:52:55.945Z,100916.75
2023-03-28T09:55:27.171Z,100907.44
2023-03-28T09:58:09.892Z,100908.66
2023-03-28T10:01:25.355Z,100904.94
2023-03-28T10:04:14.691Z,100901.88
2023-03-28T10:07:30.533Z,100910.94
2023-03-28T10:10:19.639Z,100905.28
2023-03-28T10:12:48.918Z,100900.91
2023-03-28T10:15:40.258Z,100894.44
2023-03-28T10:18:33.182Z,100895.31
2023-03-28T10:21:25.428Z,100883.00
2023-03-28T10:24:08.120Z,100879.97
2023-03-28T10:26:36.973Z,100884.28
2023-03-28T10:29:07.470Z,100876.41
2023-03-28T10:31:39.774Z,100880.66
2023-03-28T10:34:27.646Z,100872.81
2023-03-28T10:37:24.650Z,100866.50
2023-03-28T10:40:26.102Z,100871.81
2023-03-28T10:43:13.835Z,100870.66
2023-03-28T10:46:04.498Z,100872.75
2023-03-28T10:48:51.749Z,100862.72
2023-03-28T10:51:24.524Z,100864.13
2023-03-28T10:54:15.016Z,100857.75
2023-03-28T10:56:47.568Z,100858.88
2023-03-28T10:59:49.761Z,100862.22
2023-03-28T11:02:46.244Z,100860.00
2023-03-28T11:05:37.813Z,100863.63
2023-03-28T11:08:31.166Z,100865.44
2023-03-28T11:11:27.142Z,100861.34
2023-03-28T11:14:10.085Z,100865.31
2023-03-28T11:16:51.365Z,100861.78
2023-03-28T11:19:50.882Z,100851.31
2023-03-28T11:22:37.731Z,100852.94
2023-03-28T11:25:21.815Z,100854.66
2023-03-28T11:28:19.980Z,100844.09
2023-03-28T11:30:57.792Z,100847.34
2023-03-28T11:33:52.804Z,100834.28
2023-03-28T11:36:32.969Z,100829.41
2023-03-28T11:39:13.433Z,100823.63
2023-03-28T11:41:44.365Z,100822.63
2023-03-28T11:44:26.648Z,100828.78
2023-03-28T11:47:04.398Z,100810.88
2023-03-28T11:49:40.875Z,100808.03
2023-03-28T11:52:36.753Z,100802.78
2023-03-28T11:55:18.773Z,100804.84
2023-03-28T11:57:56.860Z,100804.69
2023-03-28T12:00:34.130Z,100801.84
2023-03-28T12:03:15.750Z,100798.06
2023-03-28T12:06:00.053Z,100796.19
2023-03-28T12:08:39.109Z,100782.94
2023-03-28T12:11:17.854Z,100781.88
2023-03-28T12:14:13.979Z,100774.84
2023-03-28T12:16:52.083Z,100772.00
2023-03-28T12:19:32.569Z,100768.22
2023-03-28T12:22:14.375Z,100758.06
2023-03-28T12:24:57.372Z,100760.81
2023-03-28T12:27:45.735Z,100753.44
2023-03-28T12:30:24.969Z,100756.00
2023-03-28T12:33:09.029Z,100753.22
2023-03-28T12:35:51.854Z,100750.88
2023-03-28T12:38:30.547Z,100740.53
2023-03-28T12:41:17.612Z,100746.59
2023-03-28T12:43:51.068Z,100739.66
2023-03-28T12:46:29.692Z,100735.69
2023-03-28T12:49:04.562Z,100735.03
2023-03-28T12:51:39.215Z,100743.94
2023-03-28T12:54:23.292Z,100729.38
2023-03-28T12:57:02.639Z,100734.78
2023-03-28T12:59:56.302Z,100722.72
2023-03-28T13:02:47.242Z,100726.13
2023-03-28T13:05:26.540Z,100726.41
2023-03-28T13:08:04.115Z,100732.78
2023-03-28T13:10:44.582Z,100727.03
2023-03-28T13:13:38.059Z,100718.50
2023-03-28T13:16:15.426Z,100716.72
2023-03-28T13:18:47.619Z,100706.22
2023-03-28T13:21:44.622Z,100704.94
2023-03-28T13:24:31.008Z,100697.84
2023-03-28T13:27:00.742Z,100708.16
2023-03-28T13:29:47.095Z,100702.97
2023-03-28T13:32:18.338Z,100704.13
2023-03-28T13:34:49.982Z,100695.88
2023-03-28T13:37:23.243Z,100691.13
2023-03-28T13:39:53.204Z,100683.63
2023-03-28T13:42:30.594Z,100683.75
2023-03-28T13:45:03.240Z,100684.47
2023-03-28T13:47:39.477Z,100678.34
2023-03-28T13:50:22.054Z,100672.78
2023-03-28T13:52:49.341Z,100672.09
2023-03-28T13:55:22.125Z,100664.31
2023-03-28T13:57:50.442Z,100660.03
2023-03-28T14:00:24.091Z,100660.13
2023-03-28T14:03:00.169Z,100654.44
2023-03-28T14:05:29.656Z,100646.66
2023-03-28T14:08:20.039Z,100637.19
2023-03-28T14:10:48.838Z,100635.69
2023-03-28T14:13:20.406Z,100627.41
2023-03-28T14:15:49.925Z,100625.41
2023-03-28T14:18:31.109Z,100617.97
2023-03-28T14:21:00.515Z,100609.03
2023-03-28T14:23:31.632Z,100607.63
2023-03-28T14:26:02.718Z,100604.09
2023-03-28T14:28:31.774Z,100592.84
2023-03-28T14:30:59.547Z,100590.75
2023-03-28T14:33:35.556Z,100589.22
2023-03-28T14:36:05.308Z,100590.16
2023-03-28T14:38:34.831Z,100591.50
2023-03-28T14:41:08.162Z,100585.00
2023-03-28T14:43:35.394Z,100582.16
2023-03-28T14:46:08.457Z,100581.53
2023-03-28T14:48:39.082Z,100576.53
2023-03-28T14:51:06.885Z,100565.47
2023-03-28T14:53:44.202Z,100562.03
2023-03-28T14:56:24.905Z,100559.78
2023-03-28T14:58:59.306Z,100546.50
2023-03-28T15:01:27.550Z,100555.72
2023-03-28T15:04:01.117Z,100546.34
2023-03-28T15:06:28.318Z,100542.13
2023-03-28T15:08:59.336Z,100540.28
2023-03-28T15:11:33.589Z,100538.31
2023-03-28T15:14:04.783Z,100529.59
2023-03-28T15:16:37.428Z,100534.09
2023-03-28T15:19:15.519Z,100522.97
2023-03-28T15:21:52.871Z,100519.34
2023-03-28T15:24:20.050Z,100523.91
2023-03-28T15:26:53.352Z,100526.50
2023-03-28T15:29:22.936Z,100521.97
2023-03-28T15:31:50.674Z,100522.03
2023-03-28T15:34:26.038Z,100515.28
2023-03-28T15:37:01.173Z,100507.78
2023-03-28T15:39:31.774Z,100504.06
2023-03-28T15:42:21.729Z,100509.78
2023-03-28T15:45:21.570Z,100489.38
2023-03-28T15:47:52.925Z,100489.00
2023-03-28T15:50:29.949Z,100489.41
2023-03-28T15:53:00.321Z,100485.97
2023-03-28T15:55:28.384Z,100492.28
2023-03-28T15:57:57.374Z,100483.34
2023-03-28T16:00:42.269Z,100489.25
2023-03-28T16:03:25.410Z,100478.47
2023-03-28T16:06:09.848Z,100474.31
2023-03-28T16:08:41.828Z,100468.16
2023-03-28T16:11:17.608Z,100466.03
2023-03-28T16:14:23.429Z,100450.69
2023-03-28T16:17:10.771Z,100457.56
2023-03-28T16:19:57.399Z,100450.13
2023-03-28T16:22:26.791Z,100457.47
2023-03-28T16:24:54.672Z,100465.59
2023-03-28T16:27:22.226Z,100451.84
2023-03-28T16:29:49.287Z,100451.50
2023-03-28T16:32:16.757Z,100448.06
2023-03-28T16:34:43.964Z,100447.88
2023-03-28T16:37:10.967Z,100440.41
2023-03-28T16:39:39.094Z,100445.00
2023-03-28T16:42:06.260Z,100444.53
2023-03-28T16:44:33.707Z,100436.06
2023-03-28T16:47:01.143Z,100438.84
2023-03-28T16:49:28.774Z,100426.94
2023-03-28T16:51:56.701Z,100430.94
2023-03-28T16:54:25.196Z,100424.22
2023-03-28T16:56:53.427Z,100420.91
2023-03-28T16:59:20.425Z,100413.19
2023-03-28T17:01:47.394Z,100414.19
2023-03-28T17:04:14.381Z,100398.19
2023-03-28T17:06:41.758Z,100399.88
2023-03-28T17:09:08.662Z,100401.63
2023-03-28T17:11:36.528Z,100400.75
2023-03-28T17:14:04.685Z,100390.53
2023-03-28T17:16:31.735Z,100379.38
2023-03-28T17:18:58.594Z,100382.41
2023-03-28T17:21:25.788Z,100373.38
2023-03-28T17:23:52.916Z,100364.84
2023-03-28T17:26:20.226Z,100362.91
2023-03-28T17:28:47.053Z,100357.53
2023-03-28T17:31:18.862Z,100364.84
2023-03-28T17:33:48.815Z,100359.84
2023-03-28T17:36:21.782Z,100357.78
2023-03-28T17:38:50.325Z,100361.31
2023-03-28T17:41:17.513Z,100348.69
2023-03-28T17:43:44.984Z,100345.91
2023-03-28T17:46:12.500Z,100342.91
2023-03-28T17:48:41.827Z,100327.66
2023-03-28T17:51:11.088Z,100329.88
2023-03-28T17:53:39.871Z,100331.56
2023-03-28T17:56:08.513Z,100328.69
2023-03-28T17:58:36.027Z,100326.94
2023-03-28T18:01:07.514Z,100339.00
2023-03-28T18:03:34.567Z,100334.31
2023-03-28T18:06:14.383Z,100320.50
2023-03-28T18:08:42.146Z,100313.09
2023-03-28T18:11:12.955Z,100311.63
2023-03-28T18:13:41.554Z,100316.25
2023-03-28T18:16:11.682Z,100315.31
2023-03-28T18:18:40.433Z,100313.44
2023-03-28T18:21:08.247Z,100312.13
2023-03-28T18:23:36.891Z,100306.03
2023-03-28T18:26:04.580Z,100312.00
2023-03-28T18:28:31.970Z,100308.53
2023-03-28T18:31:07.786Z,100301.03
2023-03-28T18:33:34.798Z,100303.81
2023-03-28T18:36:02.149Z,100301.31
2023-03-28T18:38:29.113Z,100301.69
2023-03-28T18:40:57.887Z,100292.84
2023-03-28T18:43:25.155Z,100291.09
2023-03-28T18:45:53.123Z,100299.03
2023-03-28T18:48:20.155Z,100291.03
2023-03-28T18:50:47.731Z,100301.25
2023-03-28T18:53:14.566Z,100298.84
2023-03-28T18:55:41.697Z,100300.72
2023-03-28T18:58:10.179Z,100304.72
2023-03-28T19:00:37.554Z,100298.94
2023-03-28T19:03:04.987Z,100298.38
2023-03-28T19:05:34.198Z,100293.34
2023-03-28T19:08:01.311Z,100297.34
2023-03-28T19:10:28.430Z,100299.22
2023-03-28T19:12:55.200Z,100296.94
2023-03-28T19:15:24.520Z,100300.94
2023-03-28T19:17:51.370Z,100300.16
2023-03-28T19:20:18.519Z,100298.25
2023-03-28T19:22:45.306Z,100314.00
2023-03-28T19:25:12.199Z,100306.28
2023-03-28T19:27:39.588Z,100308.22
2023-03-28T19:30:08.226Z,100307.22
2023-03-28T19:32:37.593Z,100310.34
2023-03-28T19:35:06.070Z,100317.69
2023-03-28T19:37:32.913Z,100315.19
2023-03-28T19:39:59.743Z,100314.38
2023-03-28T19:42:26.837Z,100308.13
2023-03-28T19:44:53.669Z,100303.59
2023-03-28T19:47:20.975Z,100301.53
2023-03-28T19:49:49.124Z,100294.75
2023-03-28T19:52:16.081Z,100287.34
2023-03-28T19:54:43.137Z,100292.91
2023-03-28T19:57:10.254Z,100283.25
2023-03-28T19:59:37.180Z,100288.06
2023-03-28T20:02:05.035Z,100288.94
2023-03-28T20:04:31.927Z,100278.44
2023-03-28T20:07:00.114Z,100281.31
2023-03-28T20:09:27.204Z,100278.91
2023-03-28T20:11:55.366Z,100272.19
2023-03-28T20:14:22.272Z,100263.88
2023-03-28T20:16:49.540Z,100270.53
2023-03-28T20:19:17.001Z,100267.00
2023-03-28T20:21:44.087Z,100263.00
2023-03-28T20:24:12.676Z,100269.88
2023-03-28T20:26:39.682Z,100269.88
2023-03-28T20:29:06.883Z,100269.44
2023-03-28T20:31:33.834Z,100264.69
2023-03-28T20:34:00.736Z,100267.47
2023-03-28T20:36:28.025Z,100265.22
2023-03-28T20:38:55.396Z,100270.38
2023-03-28T20:41:23.815Z,100284.00
2023-03-28T20:43:51.367Z,100273.13
2023-03-28T20:46:19.649Z,100268.41
2023-03-28T20:48:49.104Z,100275.28
2023-03-28T20:51:16.376Z,100286.41
2023-03-28T20:53:46.120Z,100286.69
2023-03-28T20:56:13.946Z,100274.53
2023-03-28T20:58:42.173Z,100270.72
2023-03-28T21:01:11.941Z,100286.34
2023-03-28T21:03:40.212Z,100287.88
2023-03-28T21:06:08.136Z,100294.66
2023-03-28T21:08:34.988Z,100297.72
2023-03-28T21:11:02.116Z,100296.91
2023-03-28T21:13:29.380Z,100293.56
2023-03-28T21:15:57.578Z,100293.00
2023-03-28T21:18:27.163Z,100260.59
2023-03-28T21:20:53.992Z,100244.88
2023-03-28T21:23:20.712Z,100256.13
2023-03-28T21:25:50.098Z,100217.13
2023-03-28T21:28:17.098Z,100215.41
2023-03-28T21:30:44.478Z,100231.81
2023-03-28T21:33:12.699Z,100236.63
2023-03-28T21:35:39.516Z,100246.09
2023-03-28T21:38:07.859Z,100262.91
2023-03-28T21:40:34.664Z,100273.41
2023-03-28T21:43:03.484Z,100281.72
2023-03-28T21:45:30.720Z,100278.97
2023-03-28T21:47:58.151Z,100269.06
2023-03-28T21:50:26.458Z,100268.38
2023-03-28T21:52:53.231Z,100251.38
2023-03-28T21:55:20.027Z,100248.38
2023-03-28T21:57:46.778Z,100236.44
2023-03-28T22:00:15.212Z,100226.59
2023-03-28T22:02:42.931Z,100214.69
2023-03-28T22:05:26.228Z,100210.66
2023-03-28T22:07:57.866Z,100201.03
2023-03-28T22:10:25.867Z,100201.66
2023-03-28T22:12:52.755Z,100179.06
2023-03-28T22:15:19.724Z,100181.63
2023-03-28T22:17:46.783Z,100175.06
2023-03-28T22:20:14.097Z,100192.97
2023-03-28T22:22:42.115Z,100214.19
2023-03-28T22:25:13.075Z,100241.50
2023-03-28T22:27:40.617Z,100261.06
2023-03-28T22:30:11.154Z,100269.81
2023-03-28T22:32:39.148Z,100271.56
2023-03-28T22:35:07.212Z,100259.31
2023-03-28T22:37:34.249Z,100283.50
2023-03-28T22:40:01.161Z,100284.22
2023-03-28T22:42:29.380Z,100270.00
2023-03-28T22:44:56.230Z,100254.28
2023-03-28T22:47:23.358Z,100246.03
2023-03-28T22:49:50.084Z,100250.97
2023-03-28T22:52:16.994Z,100238.06
2023-03-28T22:54:43.797Z,100251.88
2023-03-28T22:57:10.620Z,100244.44
2023-03-28T22:59:38.826Z,100264.97
2023-03-28T23:02:05.732Z,100258.53
2023-03-28T23:04:36.067Z,100253.66
2023-03-28T23:07:02.981Z,100258.50
2023-03-28T23:09:30.215Z,100254.75
2023-03-28T23:11:57.123Z,100251.97
2023-03-28T23:14:24.123Z,100249.53
2023-03-28T23:16:52.277Z,100247.59
2023-03-28T23:19:19.668Z,100252.50
2023-03-28T23:21:46.449Z,100218.56
2023-03-28T23:24:13.169Z,100228.78
2023-03-28T23:26:40.134Z,100240.22
2023-03-28T23:29:06.951Z,100235.19
2023-03-28T23:31:33.776Z,100235.53
2023-03-28T23:34:02.011Z,100234.56
2023-03-28T23:36:28.805Z,100219.63
2023-03-28T23:38:55.974Z,100212.69
2023-03-28T23:41:23.051Z,100204.47
2023-03-28T23:43:50.304Z,100196.38
2023-03-28T23:46:17.141Z,100190.97
2023-03-28T23:48:44.093Z,100188.00
2023-03-28T23:51:12.276Z,100186.09
2023-03-28T23:53:39.130Z,100191.19
2023-03-28T23:56:07.678Z,100184.03
2023-03-28T23:58:34.534Z,100176.47
